ADDS METAR Data INFO
IDs: Format: Raw Decoded Include TAF

Data at: 0508 UTC 23 May 2017

KGTU 230455Z 00000KT 10SM CLR 19/17 A2994 RMK AO1
KGTU 230435Z 33005KT 10SM CLR 19/17 A2996 RMK AO1
KGTU 230415Z 33003KT 10SM CLR 19/17 A2994 RMK AO1
KGTU 230355Z 34004KT 10SM CLR 19/17 A2993 RMK AO1
KGTU 230335Z 35003KT 10SM CLR 20/17 A2992 RMK AO1
KGTU 230315Z 34004KT 10SM SCT028 20/17 A2993 RMK AO1
KGTU 230249Z 00000KT 10SM OVC028 21/17 A2991
KGTU 230148Z 02003KT 10SM OVC028 22/17 A2992
KGTU 230047Z 06004KT 10SM OVC024 22/17 A2991
KGTU 222349Z 08004KT 10SM OVC020 22/17 A2991
KGTU 222250Z 04004KT 10SM OVC020 23/18 A2992
KGTU 222150Z 02006KT 10SM SCT016 BKN022 OVC041 23/18 A2993
KGTU 222050Z 06007KT 10SM OVC010 21/17 A2995
KGTU 221750Z 05009KT 10SM OVC014 23/17 A3001
KGTU 221650Z 05007KT 10SM OVC010 21/17 A3002
KGTU 221635Z 08004KT 10SM OVC010 21/17 A3003
KGTU 221550Z 06008KT 10SM OVC008 20/16 A3003
KGTU 221450Z 03005KT 10SM OVC006 17/14 A3005
KGTU 221350Z 03005KT 7SM OVC006 16/14 A3005
KGTU 221255Z 36006KT 8SM OVC006 16/13 A3005
KGTU 221235Z 35008KT 8SM OVC008 15/13 A3005
KGTU 221150Z 35010KT 6SM OVC016 15/12 A3005
KGTU 221135Z 35008KT 10SM OVC016 16/12 A3006 RMK AO1
KGTU 221115Z 01010KT 10SM OVC014 16/12 A3005 RMK AO1
KGTU 221055Z 01010KT 10SM OVC014 16/12 A3005 RMK AO1
KGTU 221035Z 01010KT 10SM OVC014 16/12 A3005 RMK AO1
KGTU 221015Z 02006KT 10SM OVC018 16/12 A3005 RMK AO1
KGTU 220955Z 34008KT 10SM OVC018 16/13 A3006 RMK AO1
KGTU 220935Z 36007KT 10SM BKN015 OVC021 16/13 A3006 RMK AO1
KGTU 220915Z 02006KT 10SM OVC013 16/13 A3006 RMK AO1 LTG DSNT E
KGTU 220855Z 01007KT 10SM BKN013 OVC023 16/13 A3006 RMK AO1 LTG DSNT E 57003
KGTU 220835Z 01006KT 10SM FEW011 OVC025 16/13 A3007 RMK AO1
KGTU 220815Z 02005KT 10SM FEW019 OVC027 16/13 A3008 RMK AO1
KGTU 220755Z 03005KT 10SM FEW019 OVC032 16/13 A3009 RMK AO1
KGTU 220735Z 03003KT 10SM FEW022 OVC034 16/13 A3010 RMK AO1
KGTU 220715Z 01005KT 10SM SCT034 BKN075 OVC120 16/13 A3011 RMK AO1
KGTU 220655Z 04005KT 10SM FEW075 OVC120 16/13 A3008 RMK AO1
KGTU 220635Z 04008KT 10SM BKN120 16/12 A3007 RMK AO1
KGTU 220615Z 01007KT 10SM SCT120 16/13 A3008 RMK AO1
KGTU 220555Z 04007KT 10SM BKN120 16/13 A3007 RMK AO1 60017 10200 20160 402400160 57014
KGTU 220535Z 02008KT 10SM SCT120 16/13 A3009 RMK AO1
KGTU 220515Z 02008KT 10SM FEW027 BKN120 16/13 A3009 RMK AO1
KGTU 220455Z 02005KT 10SM BKN027 OVC044 16/13 A3011 RMK AO1
KGTU 220435Z 03003KT 10SM BKN029 OVC044 16/13 A3013 RMK AO1
KGTU 220415Z 04003KT 10SM SCT044 16/12 A3013 RMK AO1
KGTU 220355Z 00000KT 10SM CLR 16/12 A3013 RMK AO1
KGTU 220335Z 03005KT 10SM SCT016 16/12 A3010 RMK AO1
KGTU 220315Z 01007KT 10SM SCT012 OVC018 16/13 A3010 RMK AO1
KGTU 220249Z 04009KT 10SM BKN008 BKN120 16/13 A3009
KGTU 220129Z COR 01009KT 9SM -RA FEW 009 BKN028 OVC038 17/14 A3010 RMK LTG DSNT NW-E TSE18
KGTU 220050Z 33009KT 5SM TSRA SCT028 BKN033 BKN039 17/14 A3012 RMK OCNL LTG ICCCCG TS S MOV NE TSB49
KGTU 220012Z 31010KT 10SM OVC028 21/14 A3010 RMK LTG DSNT ALQDS TSE10
KGTU 212348Z 31006KT 10SM TS BKN032 21/14 A3007 RMK LTG ICCG TS NW MOV N
KGTU 212332Z 35006KT 10SM TS OVC030 22/13 A3006 RMK LTG ICCG TS NW MOV N TSB28
KGTU 212250Z 02007KT 10SM VCSH BKN030 23/12 A3004
KGTU 212150Z 04010G14KT 10SM BKN030 OVC048 24/12 A3005
KGTU 212050Z 02010G14KT 10SM OVC030 24/12 A3007
KGTU 211948Z 03013G19KT 10SM BKN026 OVC034 24/11 A3007
KGTU 211850Z 01010KT 10SM OVC028 23/12 A3009
KGTU 211748Z 04012G18KT 10SM OVC026 22/10 A3010


Page loaded:  05:08 UTC  |   10:08 PM Pacific  |   11:08 PM Mountain  |   12:08 AM Central  |   01:08 AM Eastern

 

ADVISORIES

FORECASTS

FORECASTS

OBSERVATIONS

USER TOOLS

ABOUT US